sensor_id;sensor_type;location;lat;lon;timestamp;P1;durP1;ratioP1;P2;durP2;ratioP2
25583;SDS011;13463;51.526;9.928;2023-12-14T00:00:47;34.92;;;22.17;;
25583;SDS011;13463;51.526;9.928;2023-12-14T00:03:14;27.77;;;17.67;;
25583;SDS011;13463;51.526;9.928;2023-12-14T00:05:41;33.63;;;21.50;;
25583;SDS011;13463;51.526;9.928;2023-12-14T00:08:07;33.58;;;23.05;;
25583;SDS011;13463;51.526;9.928;2023-12-14T00:10:34;34.28;;;22.63;;
25583;SDS011;13463;51.526;9.928;2023-12-14T00:13:00;32.90;;;20.88;;
25583;SDS011;13463;51.526;9.928;2023-12-14T00:15:27;51.42;;;33.42;;
25583;SDS011;13463;51.526;9.928;2023-12-14T00:17:53;45.90;;;30.90;;
25583;SDS011;13463;51.526;9.928;2023-12-14T00:20:20;50.47;;;29.90;;
25583;SDS011;13463;51.526;9.928;2023-12-14T00:22:46;44.33;;;25.15;;
25583;SDS011;13463;51.526;9.928;2023-12-14T00:25:13;39.00;;;22.67;;
25583;SDS011;13463;51.526;9.928;2023-12-14T00:27:40;28.40;;;17.13;;
25583;SDS011;13463;51.526;9.928;2023-12-14T00:30:06;59.78;;;32.67;;
25583;SDS011;13463;51.526;9.928;2023-12-14T00:32:34;76.63;;;40.25;;
25583;SDS011;13463;51.526;9.928;2023-12-14T00:35:01;63.80;;;36.83;;
25583;SDS011;13463;51.526;9.928;2023-12-14T00:37:27;69.10;;;41.03;;
25583;SDS011;13463;51.526;9.928;2023-12-14T00:39:54;66.35;;;39.42;;
25583;SDS011;13463;51.526;9.928;2023-12-14T00:42:21;60.25;;;34.00;;
25583;SDS011;13463;51.526;9.928;2023-12-14T00:44:47;60.65;;;33.42;;
25583;SDS011;13463;51.526;9.928;2023-12-14T00:47:14;54.15;;;31.17;;
25583;SDS011;13463;51.526;9.928;2023-12-14T00:49:40;57.97;;;30.45;;
25583;SDS011;13463;51.526;9.928;2023-12-14T00:52:07;51.90;;;26.70;;
25583;SDS011;13463;51.526;9.928;2023-12-14T00:54:34;49.50;;;25.48;;
25583;SDS011;13463;51.526;9.928;2023-12-14T00:57:00;45.90;;;24.35;;
25583;SDS011;13463;51.526;9.928;2023-12-14T00:59:27;35.15;;;19.70;;
25583;SDS011;13463;51.526;9.928;2023-12-14T01:01:55;33.40;;;18.35;;
25583;SDS011;13463;51.526;9.928;2023-12-14T01:04:22;29.30;;;17.50;;
25583;SDS011;13463;51.526;9.928;2023-12-14T01:06:48;31.83;;;16.92;;
25583;SDS011;13463;51.526;9.928;2023-12-14T01:09:15;32.88;;;17.38;;
25583;SDS011;13463;51.526;9.928;2023-12-14T01:11:41;32.53;;;16.77;;
25583;SDS011;13463;51.526;9.928;2023-12-14T01:14:08;29.42;;;16.50;;
25583;SDS011;13463;51.526;9.928;2023-12-14T01:16:35;31.88;;;16.00;;
25583;SDS011;13463;51.526;9.928;2023-12-14T01:19:01;25.38;;;15.90;;
25583;SDS011;13463;51.526;9.928;2023-12-14T01:21:28;24.70;;;15.93;;
25583;SDS011;13463;51.526;9.928;2023-12-14T01:23:54;27.45;;;16.35;;
25583;SDS011;13463;51.526;9.928;2023-12-14T01:26:21;27.25;;;16.42;;
25583;SDS011;13463;51.526;9.928;2023-12-14T01:28:47;27.52;;;15.73;;
25583;SDS011;13463;51.526;9.928;2023-12-14T01:31:14;25.02;;;15.35;;
25583;SDS011;13463;51.526;9.928;2023-12-14T01:33:41;29.40;;;16.02;;
25583;SDS011;13463;51.526;9.928;2023-12-14T01:36:07;24.20;;;15.13;;
25583;SDS011;13463;51.526;9.928;2023-12-14T01:38:34;27.92;;;15.38;;
25583;SDS011;13463;51.526;9.928;2023-12-14T01:41:00;27.45;;;15.45;;
25583;SDS011;13463;51.526;9.928;2023-12-14T01:43:27;26.08;;;14.70;;
25583;SDS011;13463;51.526;9.928;2023-12-14T01:45:54;24.33;;;14.63;;
25583;SDS011;13463;51.526;9.928;2023-12-14T01:48:20;22.60;;;13.90;;
25583;SDS011;13463;51.526;9.928;2023-12-14T01:50:47;23.60;;;14.85;;
25583;SDS011;13463;51.526;9.928;2023-12-14T01:53:14;23.25;;;13.38;;
25583;SDS011;13463;51.526;9.928;2023-12-14T01:55:41;20.02;;;13.27;;
25583;SDS011;13463;51.526;9.928;2023-12-14T01:58:07;17.60;;;12.02;;
25583;SDS011;13463;51.526;9.928;2023-12-14T02:03:05;15.25;;;10.38;;
25583;SDS011;13463;51.526;9.928;2023-12-14T02:05:32;15.20;;;9.30;;
25583;SDS011;13463;51.526;9.928;2023-12-14T02:07:58;9.90;;;7.60;;
25583;SDS011;13463;51.526;9.928;2023-12-14T02:10:25;12.10;;;8.35;;
25583;SDS011;13463;51.526;9.928;2023-12-14T02:12:52;12.02;;;7.03;;
25583;SDS011;13463;51.526;9.928;2023-12-14T02:15:18;8.30;;;6.28;;
25583;SDS011;13463;51.526;9.928;2023-12-14T02:17:45;8.73;;;5.95;;
25583;SDS011;13463;51.526;9.928;2023-12-14T02:20:11;8.10;;;5.20;;
25583;SDS011;13463;51.526;9.928;2023-12-14T02:22:54;6.03;;;4.97;;
25583;SDS011;13463;51.526;9.928;2023-12-14T02:25:22;5.70;;;4.18;;
25583;SDS011;13463;51.526;9.928;2023-12-14T02:27:49;7.22;;;4.80;;
25583;SDS011;13463;51.526;9.928;2023-12-14T02:30:17;6.00;;;4.50;;
25583;SDS011;13463;51.526;9.928;2023-12-14T02:32:44;7.43;;;3.88;;
25583;SDS011;13463;51.526;9.928;2023-12-14T02:35:11;5.38;;;3.65;;
25583;SDS011;13463;51.526;9.928;2023-12-14T02:37:38;5.30;;;3.95;;
25583;SDS011;13463;51.526;9.928;2023-12-14T02:40:07;6.18;;;4.25;;
25583;SDS011;13463;51.526;9.928;2023-12-14T02:42:34;5.55;;;3.65;;
25583;SDS011;13463;51.526;9.928;2023-12-14T02:45:02;6.43;;;4.32;;
25583;SDS011;13463;51.526;9.928;2023-12-14T02:47:29;5.85;;;4.43;;
25583;SDS011;13463;51.526;9.928;2023-12-14T02:49:56;5.80;;;4.22;;
25583;SDS011;13463;51.526;9.928;2023-12-14T02:52:23;6.85;;;4.22;;
25583;SDS011;13463;51.526;9.928;2023-12-14T02:54:49;5.50;;;4.22;;
25583;SDS011;13463;51.526;9.928;2023-12-14T02:57:16;5.57;;;3.65;;
25583;SDS011;13463;51.526;9.928;2023-12-14T02:59:43;7.32;;;4.88;;
25583;SDS011;13463;51.526;9.928;2023-12-14T03:02:09;5.20;;;4.40;;
25583;SDS011;13463;51.526;9.928;2023-12-14T03:04:39;5.95;;;4.25;;
25583;SDS011;13463;51.526;9.928;2023-12-14T03:07:06;9.40;;;5.15;;
25583;SDS011;13463;51.526;9.928;2023-12-14T03:09:33;6.45;;;5.10;;
25583;SDS011;13463;51.526;9.928;2023-12-14T03:12:00;7.32;;;4.65;;
25583;SDS011;13463;51.526;9.928;2023-12-14T03:14:31;6.60;;;5.20;;
25583;SDS011;13463;51.526;9.928;2023-12-14T03:16:58;5.60;;;4.60;;
25583;SDS011;13463;51.526;9.928;2023-12-14T03:19:25;5.70;;;4.65;;
25583;SDS011;13463;51.526;9.928;2023-12-14T03:21:52;7.00;;;4.68;;
25583;SDS011;13463;51.526;9.928;2023-12-14T03:24:18;5.28;;;4.75;;
25583;SDS011;13463;51.526;9.928;2023-12-14T03:26:45;7.22;;;4.38;;
25583;SDS011;13463;51.526;9.928;2023-12-14T03:29:11;6.10;;;5.05;;
25583;SDS011;13463;51.526;9.928;2023-12-14T03:31:39;7.30;;;5.07;;
25583;SDS011;13463;51.526;9.928;2023-12-14T03:34:06;6.85;;;5.20;;
25583;SDS011;13463;51.526;9.928;2023-12-14T03:36:33;8.10;;;5.75;;
25583;SDS011;13463;51.526;9.928;2023-12-14T03:38:59;6.28;;;5.38;;
25583;SDS011;13463;51.526;9.928;2023-12-14T03:41:26;6.53;;;5.28;;
25583;SDS011;13463;51.526;9.928;2023-12-14T03:43:52;7.20;;;5.50;;
25583;SDS011;13463;51.526;9.928;2023-12-14T03:46:19;8.98;;;5.60;;
25583;SDS011;13463;51.526;9.928;2023-12-14T03:48:45;7.25;;;5.80;;
25583;SDS011;13463;51.526;9.928;2023-12-14T03:51:12;10.88;;;6.07;;
25583;SDS011;13463;51.526;9.928;2023-12-14T03:53:38;7.63;;;6.38;;
25583;SDS011;13463;51.526;9.928;2023-12-14T03:56:06;7.20;;;5.45;;
25583;SDS011;13463;51.526;9.928;2023-12-14T03:58:33;6.82;;;5.68;;
25583;SDS011;13463;51.526;9.928;2023-12-14T04:01:00;5.80;;;4.28;;
25583;SDS011;13463;51.526;9.928;2023-12-14T04:03:26;5.13;;;4.20;;
25583;SDS011;13463;51.526;9.928;2023-12-14T04:05:53;6.43;;;4.40;;
25583;SDS011;13463;51.526;9.928;2023-12-14T04:08:20;4.88;;;4.18;;
25583;SDS011;13463;51.526;9.928;2023-12-14T04:10:46;5.75;;;4.38;;
25583;SDS011;13463;51.526;9.928;2023-12-14T04:13:13;4.50;;;3.65;;
25583;SDS011;13463;51.526;9.928;2023-12-14T04:15:40;3.15;;;2.65;;
25583;SDS011;13463;51.526;9.928;2023-12-14T04:18:07;3.90;;;2.65;;
25583;SDS011;13463;51.526;9.928;2023-12-14T04:20:34;3.53;;;2.70;;
25583;SDS011;13463;51.526;9.928;2023-12-14T04:23:01;2.70;;;1.75;;
25583;SDS011;13463;51.526;9.928;2023-12-14T04:25:27;3.65;;;2.28;;
25583;SDS011;13463;51.526;9.928;2023-12-14T04:27:54;3.50;;;2.08;;
25583;SDS011;13463;51.526;9.928;2023-12-14T04:30:20;2.50;;;1.60;;
25583;SDS011;13463;51.526;9.928;2023-12-14T04:32:47;2.20;;;1.50;;
25583;SDS011;13463;51.526;9.928;2023-12-14T04:35:14;2.55;;;1.83;;
25583;SDS011;13463;51.526;9.928;2023-12-14T04:37:40;2.47;;;1.67;;
25583;SDS011;13463;51.526;9.928;2023-12-14T04:40:07;2.30;;;1.80;;
25583;SDS011;13463;51.526;9.928;2023-12-14T04:42:34;3.58;;;2.00;;
25583;SDS011;13463;51.526;9.928;2023-12-14T04:45:01;2.63;;;1.73;;
25583;SDS011;13463;51.526;9.928;2023-12-14T04:47:28;3.10;;;2.30;;
25583;SDS011;13463;51.526;9.928;2023-12-14T04:49:55;5.10;;;2.40;;
25583;SDS011;13463;51.526;9.928;2023-12-14T04:52:21;3.47;;;2.15;;
25583;SDS011;13463;51.526;9.928;2023-12-14T04:54:48;3.88;;;2.28;;
25583;SDS011;13463;51.526;9.928;2023-12-14T04:57:14;2.55;;;1.95;;
25583;SDS011;13463;51.526;9.928;2023-12-14T04:59:41;2.85;;;1.80;;
25583;SDS011;13463;51.526;9.928;2023-12-14T05:02:08;2.78;;;2.03;;
25583;SDS011;13463;51.526;9.928;2023-12-14T05:04:35;2.80;;;2.20;;
25583;SDS011;13463;51.526;9.928;2023-12-14T05:07:01;3.22;;;2.28;;
25583;SDS011;13463;51.526;9.928;2023-12-14T05:09:28;2.72;;;2.10;;
25583;SDS011;13463;51.526;9.928;2023-12-14T05:11:55;2.28;;;1.90;;
25583;SDS011;13463;51.526;9.928;2023-12-14T05:14:21;4.25;;;3.20;;
25583;SDS011;13463;51.526;9.928;2023-12-14T05:16:48;3.75;;;2.60;;
25583;SDS011;13463;51.526;9.928;2023-12-14T05:19:14;5.55;;;2.92;;
25583;SDS011;13463;51.526;9.928;2023-12-14T05:21:41;3.63;;;2.90;;
25583;SDS011;13463;51.526;9.928;2023-12-14T05:24:07;3.97;;;2.90;;
25583;SDS011;13463;51.526;9.928;2023-12-14T05:26:34;4.25;;;2.88;;
25583;SDS011;13463;51.526;9.928;2023-12-14T05:29:01;4.30;;;3.28;;
25583;SDS011;13463;51.526;9.928;2023-12-14T05:31:27;4.93;;;3.53;;
25583;SDS011;13463;51.526;9.928;2023-12-14T05:33:54;3.13;;;2.78;;
25583;SDS011;13463;51.526;9.928;2023-12-14T05:36:20;4.35;;;3.20;;
25583;SDS011;13463;51.526;9.928;2023-12-14T05:38:47;4.47;;;3.20;;
25583;SDS011;13463;51.526;9.928;2023-12-14T05:41:13;4.35;;;3.45;;
25583;SDS011;13463;51.526;9.928;2023-12-14T05:43:40;5.13;;;3.35;;
25583;SDS011;13463;51.526;9.928;2023-12-14T05:46:07;4.22;;;3.38;;
25583;SDS011;13463;51.526;9.928;2023-12-14T05:48:34;5.97;;;3.42;;
25583;SDS011;13463;51.526;9.928;2023-12-14T05:51:00;4.43;;;3.83;;
25583;SDS011;13463;51.526;9.928;2023-12-14T05:53:27;15.00;;;10.45;;
25583;SDS011;13463;51.526;9.928;2023-12-14T05:55:54;5.88;;;4.50;;
25583;SDS011;13463;51.526;9.928;2023-12-14T05:58:20;5.45;;;3.58;;
25583;SDS011;13463;51.526;9.928;2023-12-14T06:00:47;5.07;;;3.42;;
25583;SDS011;13463;51.526;9.928;2023-12-14T06:03:14;4.85;;;3.63;;
25583;SDS011;13463;51.526;9.928;2023-12-14T06:05:40;4.20;;;3.67;;
25583;SDS011;13463;51.526;9.928;2023-12-14T06:08:07;4.75;;;3.55;;
25583;SDS011;13463;51.526;9.928;2023-12-14T06:10:33;5.85;;;3.80;;
25583;SDS011;13463;51.526;9.928;2023-12-14T06:13:00;5.00;;;4.13;;
25583;SDS011;13463;51.526;9.928;2023-12-14T06:15:27;5.43;;;4.15;;
25583;SDS011;13463;51.526;9.928;2023-12-14T06:17:54;6.85;;;4.72;;
25583;SDS011;13463;51.526;9.928;2023-12-14T06:20:21;4.70;;;3.70;;
25583;SDS011;13463;51.526;9.928;2023-12-14T06:22:47;4.13;;;3.58;;
25583;SDS011;13463;51.526;9.928;2023-12-14T06:25:15;5.80;;;4.82;;
25583;SDS011;13463;51.526;9.928;2023-12-14T06:27:42;5.85;;;3.72;;
25583;SDS011;13463;51.526;9.928;2023-12-14T06:30:09;7.35;;;6.00;;
25583;SDS011;13463;51.526;9.928;2023-12-14T06:32:37;6.10;;;4.90;;
25583;SDS011;13463;51.526;9.928;2023-12-14T06:35:04;34.50;;;23.10;;
25583;SDS011;13463;51.526;9.928;2023-12-14T06:37:31;8.05;;;5.95;;
25583;SDS011;13463;51.526;9.928;2023-12-14T06:39:58;7.63;;;5.70;;
25583;SDS011;13463;51.526;9.928;2023-12-14T06:42:26;7.07;;;5.45;;
25583;SDS011;13463;51.526;9.928;2023-12-14T06:44:54;7.03;;;5.65;;
25583;SDS011;13463;51.526;9.928;2023-12-14T06:47:20;6.45;;;5.22;;
25583;SDS011;13463;51.526;9.928;2023-12-14T06:49:47;8.07;;;5.68;;
25583;SDS011;13463;51.526;9.928;2023-12-14T06:52:14;7.35;;;6.20;;
25583;SDS011;13463;51.526;9.928;2023-12-14T06:54:40;7.32;;;5.32;;
25583;SDS011;13463;51.526;9.928;2023-12-14T06:57:07;7.00;;;4.75;;
25583;SDS011;13463;51.526;9.928;2023-12-14T06:59:33;7.07;;;5.53;;
25583;SDS011;13463;51.526;9.928;2023-12-14T07:02:00;7.00;;;5.18;;
25583;SDS011;13463;51.526;9.928;2023-12-14T07:04:27;8.95;;;5.78;;
25583;SDS011;13463;51.526;9.928;2023-12-14T07:06:53;7.28;;;6.18;;
25583;SDS011;13463;51.526;9.928;2023-12-14T07:09:20;6.40;;;5.70;;
25583;SDS011;13463;51.526;9.928;2023-12-14T07:11:46;6.15;;;5.03;;
25583;SDS011;13463;51.526;9.928;2023-12-14T07:14:13;6.47;;;5.13;;
25583;SDS011;13463;51.526;9.928;2023-12-14T07:16:41;7.28;;;5.07;;
25583;SDS011;13463;51.526;9.928;2023-12-14T07:19:08;7.63;;;5.35;;
25583;SDS011;13463;51.526;9.928;2023-12-14T07:21:37;6.60;;;4.78;;
25583;SDS011;13463;51.526;9.928;2023-12-14T07:24:04;7.35;;;6.05;;
25583;SDS011;13463;51.526;9.928;2023-12-14T07:26:30;7.47;;;5.72;;
25583;SDS011;13463;51.526;9.928;2023-12-14T07:28:57;6.85;;;5.65;;
25583;SDS011;13463;51.526;9.928;2023-12-14T07:31:23;6.45;;;5.80;;
25583;SDS011;13463;51.526;9.928;2023-12-14T07:33:50;6.85;;;6.10;;
25583;SDS011;13463;51.526;9.928;2023-12-14T07:36:17;7.15;;;5.78;;
25583;SDS011;13463;51.526;9.928;2023-12-14T07:38:43;6.95;;;5.63;;
25583;SDS011;13463;51.526;9.928;2023-12-14T07:41:10;7.70;;;5.75;;
25583;SDS011;13463;51.526;9.928;2023-12-14T07:43:36;7.80;;;6.72;;
25583;SDS011;13463;51.526;9.928;2023-12-14T07:46:03;7.93;;;6.40;;
25583;SDS011;13463;51.526;9.928;2023-12-14T07:48:30;7.88;;;5.65;;
25583;SDS011;13463;51.526;9.928;2023-12-14T07:50:56;7.03;;;5.68;;
25583;SDS011;13463;51.526;9.928;2023-12-14T07:53:23;6.28;;;5.30;;
25583;SDS011;13463;51.526;9.928;2023-12-14T07:55:50;6.50;;;5.43;;
25583;SDS011;13463;51.526;9.928;2023-12-14T07:58:17;6.03;;;5.13;;
25583;SDS011;13463;51.526;9.928;2023-12-14T08:00:44;6.35;;;5.28;;
25583;SDS011;13463;51.526;9.928;2023-12-14T08:03:10;7.82;;;5.47;;
25583;SDS011;13463;51.526;9.928;2023-12-14T08:05:37;7.15;;;5.50;;
25583;SDS011;13463;51.526;9.928;2023-12-14T08:08:04;5.70;;;5.10;;
25583;SDS011;13463;51.526;9.928;2023-12-14T08:10:30;4.72;;;4.20;;
25583;SDS011;13463;51.526;9.928;2023-12-14T08:12:57;6.13;;;5.00;;
25583;SDS011;13463;51.526;9.928;2023-12-14T08:15:23;6.30;;;4.60;;
25583;SDS011;13463;51.526;9.928;2023-12-14T08:17:50;5.68;;;4.35;;
25583;SDS011;13463;51.526;9.928;2023-12-14T08:20:16;5.30;;;4.47;;
25583;SDS011;13463;51.526;9.928;2023-12-14T08:22:43;5.30;;;4.80;;
25583;SDS011;13463;51.526;9.928;2023-12-14T08:25:13;6.65;;;5.88;;
25583;SDS011;13463;51.526;9.928;2023-12-14T08:27:44;8.00;;;6.78;;
25583;SDS011;13463;51.526;9.928;2023-12-14T08:30:11;6.93;;;6.03;;
25583;SDS011;13463;51.526;9.928;2023-12-14T08:32:38;9.15;;;7.40;;
25583;SDS011;13463;51.526;9.928;2023-12-14T08:35:06;9.05;;;7.35;;
25583;SDS011;13463;51.526;9.928;2023-12-14T08:37:33;8.57;;;7.13;;
25583;SDS011;13463;51.526;9.928;2023-12-14T08:39:59;9.77;;;8.07;;
25583;SDS011;13463;51.526;9.928;2023-12-14T08:42:26;12.57;;;8.45;;
25583;SDS011;13463;51.526;9.928;2023-12-14T08:44:52;12.60;;;9.20;;
25583;SDS011;13463;51.526;9.928;2023-12-14T08:47:19;11.45;;;8.35;;
25583;SDS011;13463;51.526;9.928;2023-12-14T08:49:46;9.93;;;7.18;;
25583;SDS011;13463;51.526;9.928;2023-12-14T08:52:12;9.98;;;7.93;;
25583;SDS011;13463;51.526;9.928;2023-12-14T08:54:40;11.50;;;9.52;;
25583;SDS011;13463;51.526;9.928;2023-12-14T08:57:09;11.07;;;9.07;;
25583;SDS011;13463;51.526;9.928;2023-12-14T08:59:36;10.88;;;8.77;;
25583;SDS011;13463;51.526;9.928;2023-12-14T09:02:05;14.43;;;11.00;;
25583;SDS011;13463;51.526;9.928;2023-12-14T09:04:32;14.27;;;9.82;;
25583;SDS011;13463;51.526;9.928;2023-12-14T09:06:59;15.20;;;11.00;;
25583;SDS011;13463;51.526;9.928;2023-12-14T09:09:25;18.08;;;12.27;;
25583;SDS011;13463;51.526;9.928;2023-12-14T09:11:52;19.63;;;11.40;;
25583;SDS011;13463;51.526;9.928;2023-12-14T09:14:20;17.73;;;11.43;;
25583;SDS011;13463;51.526;9.928;2023-12-14T09:16:48;18.40;;;11.18;;
25583;SDS011;13463;51.526;9.928;2023-12-14T09:19:15;21.35;;;11.88;;
25583;SDS011;13463;51.526;9.928;2023-12-14T09:21:42;18.90;;;11.77;;
25583;SDS011;13463;51.526;9.928;2023-12-14T09:24:12;19.63;;;12.07;;
25583;SDS011;13463;51.526;9.928;2023-12-14T09:26:39;19.80;;;10.80;;
25583;SDS011;13463;51.526;9.928;2023-12-14T09:29:06;20.58;;;11.23;;
25583;SDS011;13463;51.526;9.928;2023-12-14T09:31:34;19.98;;;12.50;;
25583;SDS011;13463;51.526;9.928;2023-12-14T09:34:01;17.65;;;10.70;;
25583;SDS011;13463;51.526;9.928;2023-12-14T09:36:28;16.33;;;10.60;;
25583;SDS011;13463;51.526;9.928;2023-12-14T09:38:54;15.82;;;10.88;;
25583;SDS011;13463;51.526;9.928;2023-12-14T09:41:21;19.65;;;10.55;;
25583;SDS011;13463;51.526;9.928;2023-12-14T09:43:47;14.88;;;10.25;;
25583;SDS011;13463;51.526;9.928;2023-12-14T09:46:14;16.75;;;11.18;;
25583;SDS011;13463;51.526;9.928;2023-12-14T09:48:45;14.20;;;9.35;;
25583;SDS011;13463;51.526;9.928;2023-12-14T09:51:13;15.18;;;9.23;;
25583;SDS011;13463;51.526;9.928;2023-12-14T09:53:39;17.02;;;11.93;;
25583;SDS011;13463;51.526;9.928;2023-12-14T09:56:06;18.10;;;11.55;;
25583;SDS011;13463;51.526;9.928;2023-12-14T09:58:33;17.13;;;11.48;;
25583;SDS011;13463;51.526;9.928;2023-12-14T10:01:00;18.00;;;11.20;;
25583;SDS011;13463;51.526;9.928;2023-12-14T10:03:30;19.05;;;12.52;;
25583;SDS011;13463;51.526;9.928;2023-12-14T10:05:59;18.13;;;12.50;;
25583;SDS011;13463;51.526;9.928;2023-12-14T10:08:28;18.83;;;12.10;;
25583;SDS011;13463;51.526;9.928;2023-12-14T10:10:55;16.75;;;11.45;;
25583;SDS011;13463;51.526;9.928;2023-12-14T10:13:38;19.48;;;13.50;;
25583;SDS011;13463;51.526;9.928;2023-12-14T10:16:05;20.25;;;13.73;;
25583;SDS011;13463;51.526;9.928;2023-12-14T10:18:32;22.80;;;14.45;;
25583;SDS011;13463;51.526;9.928;2023-12-14T10:21:03;22.77;;;15.18;;
25583;SDS011;13463;51.526;9.928;2023-12-14T10:23:34;19.92;;;13.90;;
25583;SDS011;13463;51.526;9.928;2023-12-14T10:26:01;20.42;;;13.90;;
25583;SDS011;13463;51.526;9.928;2023-12-14T10:28:28;19.42;;;13.52;;
25583;SDS011;13463;51.526;9.928;2023-12-14T10:30:55;19.77;;;14.07;;
25583;SDS011;13463;51.526;9.928;2023-12-14T10:33:21;18.70;;;12.68;;
25583;SDS011;13463;51.526;9.928;2023-12-14T10:35:48;16.80;;;12.77;;
25583;SDS011;13463;51.526;9.928;2023-12-14T10:38:15;14.45;;;11.35;;
25583;SDS011;13463;51.526;9.928;2023-12-14T10:40:44;15.70;;;12.30;;
25583;SDS011;13463;51.526;9.928;2023-12-14T10:43:12;18.02;;;12.77;;
25583;SDS011;13463;51.526;9.928;2023-12-14T10:48:09;16.45;;;11.80;;
25583;SDS011;13463;51.526;9.928;2023-12-14T10:50:36;18.90;;;12.73;;
25583;SDS011;13463;51.526;9.928;2023-12-14T10:53:03;16.17;;;12.68;;
25583;SDS011;13463;51.526;9.928;2023-12-14T10:55:33;16.88;;;11.30;;
25583;SDS011;13463;51.526;9.928;2023-12-14T10:58:04;12.10;;;9.68;;
25583;SDS011;13463;51.526;9.928;2023-12-14T11:00:31;11.85;;;9.30;;
25583;SDS011;13463;51.526;9.928;2023-12-14T11:02:58;10.98;;;8.35;;
25583;SDS011;13463;51.526;9.928;2023-12-14T11:05:26;11.13;;;8.43;;
25583;SDS011;13463;51.526;9.928;2023-12-14T11:08:00;9.75;;;7.95;;
25583;SDS011;13463;51.526;9.928;2023-12-14T11:10:39;10.95;;;8.95;;
25583;SDS011;13463;51.526;9.928;2023-12-14T11:13:13;8.30;;;7.45;;
25583;SDS011;13463;51.526;9.928;2023-12-14T11:15:51;12.32;;;7.57;;
25583;SDS011;13463;51.526;9.928;2023-12-14T11:20:51;7.22;;;5.88;;
25583;SDS011;13463;51.526;9.928;2023-12-14T11:26:00;8.88;;;6.32;;
25583;SDS011;13463;51.526;9.928;2023-12-14T11:28:31;8.15;;;5.82;;
25583;SDS011;13463;51.526;9.928;2023-12-14T11:31:03;6.75;;;5.88;;
25583;SDS011;13463;51.526;9.928;2023-12-14T11:33:34;7.07;;;6.22;;
25583;SDS011;13463;51.526;9.928;2023-12-14T11:36:08;6.13;;;5.40;;
25583;SDS011;13463;51.526;9.928;2023-12-14T11:38:35;7.03;;;5.40;;
25583;SDS011;13463;51.526;9.928;2023-12-14T11:41:02;7.55;;;6.03;;
25583;SDS011;13463;51.526;9.928;2023-12-14T11:43:29;7.53;;;5.68;;
25583;SDS011;13463;51.526;9.928;2023-12-14T11:45:56;9.05;;;5.93;;
25583;SDS011;13463;51.526;9.928;2023-12-14T11:48:23;25.90;;;16.45;;
25583;SDS011;13463;51.526;9.928;2023-12-14T11:50:49;8.32;;;6.85;;
25583;SDS011;13463;51.526;9.928;2023-12-14T11:53:17;6.95;;;5.05;;
25583;SDS011;13463;51.526;9.928;2023-12-14T11:55:44;6.47;;;4.45;;
25583;SDS011;13463;51.526;9.928;2023-12-14T11:58:12;6.80;;;4.90;;
25583;SDS011;13463;51.526;9.928;2023-12-14T12:00:42;6.45;;;4.90;;
25583;SDS011;13463;51.526;9.928;2023-12-14T12:03:11;6.15;;;5.05;;
25583;SDS011;13463;51.526;9.928;2023-12-14T12:08:10;9.20;;;6.15;;
25583;SDS011;13463;51.526;9.928;2023-12-14T12:10:38;6.20;;;5.43;;
25583;SDS011;13463;51.526;9.928;2023-12-14T12:13:16;6.05;;;5.20;;
25583;SDS011;13463;51.526;9.928;2023-12-14T12:15:44;7.28;;;5.50;;
25583;SDS011;13463;51.526;9.928;2023-12-14T12:18:12;8.15;;;6.45;;
25583;SDS011;13463;51.526;9.928;2023-12-14T12:20:40;6.27;;;5.67;;
25583;SDS011;13463;51.526;9.928;2023-12-14T12:23:07;7.55;;;5.72;;
25583;SDS011;13463;51.526;9.928;2023-12-14T12:25:34;7.07;;;6.20;;
25583;SDS011;13463;51.526;9.928;2023-12-14T12:28:01;7.70;;;6.45;;
25583;SDS011;13463;51.526;9.928;2023-12-14T12:30:32;8.27;;;6.70;;
25583;SDS011;13463;51.526;9.928;2023-12-14T12:33:03;8.23;;;6.55;;
25583;SDS011;13463;51.526;9.928;2023-12-14T12:35:30;70.82;;;42.42;;
25583;SDS011;13463;51.526;9.928;2023-12-14T12:37:59;8.25;;;6.47;;
25583;SDS011;13463;51.526;9.928;2023-12-14T12:40:25;7.88;;;6.00;;
25583;SDS011;13463;51.526;9.928;2023-12-14T12:42:52;7.80;;;5.63;;
25583;SDS011;13463;51.526;9.928;2023-12-14T12:45:19;6.75;;;5.95;;
25583;SDS011;13463;51.526;9.928;2023-12-14T12:47:48;21.63;;;14.43;;
25583;SDS011;13463;51.526;9.928;2023-12-14T12:50:16;37.67;;;27.67;;
25583;SDS011;13463;51.526;9.928;2023-12-14T12:52:42;7.22;;;5.72;;
25583;SDS011;13463;51.526;9.928;2023-12-14T12:55:09;7.05;;;5.55;;
25583;SDS011;13463;51.526;9.928;2023-12-14T12:57:36;7.60;;;5.43;;
25583;SDS011;13463;51.526;9.928;2023-12-14T13:00:03;11.40;;;4.57;;
25583;SDS011;13463;51.526;9.928;2023-12-14T13:02:31;10.38;;;5.43;;
25583;SDS011;13463;51.526;9.928;2023-12-14T13:04:57;6.57;;;4.63;;
25583;SDS011;13463;51.526;9.928;2023-12-14T13:07:24;15.55;;;6.78;;
25583;SDS011;13463;51.526;9.928;2023-12-14T13:09:51;3.50;;;3.10;;
25583;SDS011;13463;51.526;9.928;2023-12-14T13:12:17;5.97;;;3.45;;
25583;SDS011;13463;51.526;9.928;2023-12-14T13:14:44;11.35;;;5.88;;
25583;SDS011;13463;51.526;9.928;2023-12-14T13:17:11;9.60;;;4.80;;
25583;SDS011;13463;51.526;9.928;2023-12-14T13:19:37;3.03;;;2.58;;
25583;SDS011;13463;51.526;9.928;2023-12-14T13:22:04;5.05;;;3.38;;
25583;SDS011;13463;51.526;9.928;2023-12-14T13:24:31;2.75;;;2.20;;
25583;SDS011;13463;51.526;9.928;2023-12-14T13:26:57;3.95;;;2.50;;
25583;SDS011;13463;51.526;9.928;2023-12-14T13:29:24;4.32;;;3.20;;
25583;SDS011;13463;51.526;9.928;2023-12-14T13:31:51;4.60;;;3.70;;
25583;SDS011;13463;51.526;9.928;2023-12-14T13:34:17;3.72;;;3.15;;
25583;SDS011;13463;51.526;9.928;2023-12-14T13:36:44;4.97;;;3.30;;
25583;SDS011;13463;51.526;9.928;2023-12-14T13:39:11;4.65;;;3.42;;
25583;SDS011;13463;51.526;9.928;2023-12-14T13:41:37;5.50;;;3.38;;
25583;SDS011;13463;51.526;9.928;2023-12-14T13:44:15;3.78;;;3.13;;
25583;SDS011;13463;51.526;9.928;2023-12-14T13:46:42;5.13;;;3.40;;
25583;SDS011;13463;51.526;9.928;2023-12-14T13:49:10;6.18;;;3.40;;
25583;SDS011;13463;51.526;9.928;2023-12-14T13:51:39;5.07;;;3.33;;
25583;SDS011;13463;51.526;9.928;2023-12-14T13:54:07;4.28;;;3.15;;
25583;SDS011;13463;51.526;9.928;2023-12-14T13:56:33;5.85;;;3.28;;
25583;SDS011;13463;51.526;9.928;2023-12-14T13:59:00;3.78;;;3.00;;
25583;SDS011;13463;51.526;9.928;2023-12-14T14:01:27;4.53;;;3.85;;
25583;SDS011;13463;51.526;9.928;2023-12-14T14:03:53;5.25;;;4.00;;
25583;SDS011;13463;51.526;9.928;2023-12-14T14:06:20;7.13;;;4.07;;
25583;SDS011;13463;51.526;9.928;2023-12-14T14:08:49;4.15;;;3.75;;
25583;SDS011;13463;51.526;9.928;2023-12-14T14:11:16;5.60;;;4.53;;
25583;SDS011;13463;51.526;9.928;2023-12-14T14:13:43;5.40;;;4.90;;
25583;SDS011;13463;51.526;9.928;2023-12-14T14:16:09;5.82;;;5.07;;
25583;SDS011;13463;51.526;9.928;2023-12-14T14:18:36;5.70;;;5.05;;
25583;SDS011;13463;51.526;9.928;2023-12-14T14:21:03;9.13;;;6.30;;
25583;SDS011;13463;51.526;9.928;2023-12-14T14:23:34;7.55;;;6.18;;
25583;SDS011;13463;51.526;9.928;2023-12-14T14:26:01;11.15;;;6.70;;
25583;SDS011;13463;51.526;9.928;2023-12-14T14:28:27;8.85;;;6.22;;
25583;SDS011;13463;51.526;9.928;2023-12-14T14:30:54;7.45;;;6.75;;
25583;SDS011;13463;51.526;9.928;2023-12-14T14:33:21;8.77;;;7.63;;
25583;SDS011;13463;51.526;9.928;2023-12-14T14:35:47;9.38;;;8.32;;
25583;SDS011;13463;51.526;9.928;2023-12-14T14:38:14;10.23;;;8.45;;
25583;SDS011;13463;51.526;9.928;2023-12-14T14:40:41;10.02;;;9.00;;
25583;SDS011;13463;51.526;9.928;2023-12-14T14:43:09;14.20;;;11.30;;
25583;SDS011;13463;51.526;9.928;2023-12-14T14:45:36;16.00;;;12.27;;
25583;SDS011;13463;51.526;9.928;2023-12-14T14:48:04;15.90;;;13.68;;
25583;SDS011;13463;51.526;9.928;2023-12-14T14:50:35;15.98;;;13.07;;